sensor_id;sensor_type;location;lat;lon;timestamp;temperature;humidity
68719;DHT22;55696;52.138;5.444;2022-07-30T00:00:37;21.80;61.90
68719;DHT22;55696;52.138;5.444;2022-07-30T00:03:04;21.80;61.90
68719;DHT22;55696;52.138;5.444;2022-07-30T00:05:31;21.80;61.90
68719;DHT22;55696;52.138;5.444;2022-07-30T00:07:57;21.80;62.10
68719;DHT22;55696;52.138;5.444;2022-07-30T00:10:24;21.60;62.10
68719;DHT22;55696;52.138;5.444;2022-07-30T00:12:51;21.70;62.20
68719;DHT22;55696;52.138;5.444;2022-07-30T00:15:18;21.50;62.10
68719;DHT22;55696;52.138;5.444;2022-07-30T00:17:45;21.70;62.20
68719;DHT22;55696;52.138;5.444;2022-07-30T00:20:15;21.70;62.10
68719;DHT22;55696;52.138;5.444;2022-07-30T00:22:44;21.70;62.10
68719;DHT22;55696;52.138;5.444;2022-07-30T00:25:10;21.60;62.20
68719;DHT22;55696;52.138;5.444;2022-07-30T00:27:37;21.50;62.40
68719;DHT22;55696;52.138;5.444;2022-07-30T00:30:05;21.50;62.50
68719;DHT22;55696;52.138;5.444;2022-07-30T00:32:32;21.50;62.60
68719;DHT22;55696;52.138;5.444;2022-07-30T00:34:58;21.50;62.50
68719;DHT22;55696;52.138;5.444;2022-07-30T00:37:25;21.50;62.50
68719;DHT22;55696;52.138;5.444;2022-07-30T00:39:52;21.50;62.50
68719;DHT22;55696;52.138;5.444;2022-07-30T00:42:19;21.50;62.50
68719;DHT22;55696;52.138;5.444;2022-07-30T00:44:51;21.50;62.40
68719;DHT22;55696;52.138;5.444;2022-07-30T00:47:18;21.50;62.60
68719;DHT22;55696;52.138;5.444;2022-07-30T00:49:45;21.40;62.50
68719;DHT22;55696;52.138;5.444;2022-07-30T00:52:12;21.40;62.60
68719;DHT22;55696;52.138;5.444;2022-07-30T00:54:39;21.40;62.60
68719;DHT22;55696;52.138;5.444;2022-07-30T00:57:09;21.40;62.60
68719;DHT22;55696;52.138;5.444;2022-07-30T00:59:35;21.30;62.60
68719;DHT22;55696;52.138;5.444;2022-07-30T01:02:02;21.00;62.70
68719;DHT22;55696;52.138;5.444;2022-07-30T01:04:29;21.10;63.00
68719;DHT22;55696;52.138;5.444;2022-07-30T01:06:56;21.10;63.10
68719;DHT22;55696;52.138;5.444;2022-07-30T01:09:24;21.10;63.20
68719;DHT22;55696;52.138;5.444;2022-07-30T01:11:50;21.10;63.10
68719;DHT22;55696;52.138;5.444;2022-07-30T01:14:17;21.10;63.10
68719;DHT22;55696;52.138;5.444;2022-07-30T01:16:44;21.10;63.00
68719;DHT22;55696;52.138;5.444;2022-07-30T01:19:24;21.10;63.10
68719;DHT22;55696;52.138;5.444;2022-07-30T01:25:05;21.10;63.00
68719;DHT22;55696;52.138;5.444;2022-07-30T01:27:38;21.10;63.10
68719;DHT22;55696;52.138;5.444;2022-07-30T01:30:06;20.90;62.90
68719;DHT22;55696;52.138;5.444;2022-07-30T01:32:35;20.90;63.00
68719;DHT22;55696;52.138;5.444;2022-07-30T01:35:05;20.90;63.10
68719;DHT22;55696;52.138;5.444;2022-07-30T01:37:33;20.80;63.30
68719;DHT22;55696;52.138;5.444;2022-07-30T01:40:01;20.80;63.50
68719;DHT22;55696;52.138;5.444;2022-07-30T01:42:28;20.50;63.60
68719;DHT22;55696;52.138;5.444;2022-07-30T01:44:57;21.30;64.20
68719;DHT22;55696;52.138;5.444;2022-07-30T01:47:25;20.70;63.90
68719;DHT22;55696;52.138;5.444;2022-07-30T01:49:54;20.70;63.80
68719;DHT22;55696;52.138;5.444;2022-07-30T01:52:22;20.70;63.70
68719;DHT22;55696;52.138;5.444;2022-07-30T01:54:53;20.80;63.60
68719;DHT22;55696;52.138;5.444;2022-07-30T01:57:22;20.80;63.70
68719;DHT22;55696;52.138;5.444;2022-07-30T01:59:55;20.70;63.50
68719;DHT22;55696;52.138;5.444;2022-07-30T02:02:24;20.60;63.70
68719;DHT22;55696;52.138;5.444;2022-07-30T02:04:50;20.70;63.60
68719;DHT22;55696;52.138;5.444;2022-07-30T02:07:23;20.70;63.60
68719;DHT22;55696;52.138;5.444;2022-07-30T02:09:57;20.70;63.90
68719;DHT22;55696;52.138;5.444;2022-07-30T02:12:25;20.70;63.80
68719;DHT22;55696;52.138;5.444;2022-07-30T02:15:25;20.70;63.60
68719;DHT22;55696;52.138;5.444;2022-07-30T02:18:03;20.60;63.80
68719;DHT22;55696;52.138;5.444;2022-07-30T02:20:34;20.60;63.70
68719;DHT22;55696;52.138;5.444;2022-07-30T02:23:09;20.60;63.60
68719;DHT22;55696;52.138;5.444;2022-07-30T02:25:39;20.60;63.80
68719;DHT22;55696;52.138;5.444;2022-07-30T02:28:10;20.40;63.60
68719;DHT22;55696;52.138;5.444;2022-07-30T02:30:43;20.60;63.90
68719;DHT22;55696;52.138;5.444;2022-07-30T02:33:13;20.50;64.00
68719;DHT22;55696;52.138;5.444;2022-07-30T02:35:41;20.30;63.80
68719;DHT22;55696;52.138;5.444;2022-07-30T02:38:10;20.40;63.90
68719;DHT22;55696;52.138;5.444;2022-07-30T02:40:40;20.40;64.10
68719;DHT22;55696;52.138;5.444;2022-07-30T02:43:07;20.40;64.20
68719;DHT22;55696;52.138;5.444;2022-07-30T02:45:36;20.40;64.00
68719;DHT22;55696;52.138;5.444;2022-07-30T02:48:05;20.40;64.10
68719;DHT22;55696;52.138;5.444;2022-07-30T02:50:33;20.40;64.10
68719;DHT22;55696;52.138;5.444;2022-07-30T02:53:02;20.40;64.00
68719;DHT22;55696;52.138;5.444;2022-07-30T02:55:33;20.30;64.20
68719;DHT22;55696;52.138;5.444;2022-07-30T02:58:03;20.10;64.20
68719;DHT22;55696;52.138;5.444;2022-07-30T03:00:32;20.30;64.60
68719;DHT22;55696;52.138;5.444;2022-07-30T03:02:59;20.30;64.30
68719;DHT22;55696;52.138;5.444;2022-07-30T03:05:28;20.20;64.20
68719;DHT22;55696;52.138;5.444;2022-07-30T03:07:57;20.20;64.50
68719;DHT22;55696;52.138;5.444;2022-07-30T03:10:26;20.10;64.60
68719;DHT22;55696;52.138;5.444;2022-07-30T03:12:53;20.00;64.50
68719;DHT22;55696;52.138;5.444;2022-07-30T03:15:21;20.10;64.60
68719;DHT22;55696;52.138;5.444;2022-07-30T03:17:52;20.10;64.60
68719;DHT22;55696;52.138;5.444;2022-07-30T03:20:26;20.10;64.80
68719;DHT22;55696;52.138;5.444;2022-07-30T03:22:54;21.00;65.20
68719;DHT22;55696;52.138;5.444;2022-07-30T03:25:25;20.10;64.60
68719;DHT22;55696;52.138;5.444;2022-07-30T03:27:56;20.00;64.60
68719;DHT22;55696;52.138;5.444;2022-07-30T03:30:25;20.10;64.70
68719;DHT22;55696;52.138;5.444;2022-07-30T03:32:55;20.00;64.40
68719;DHT22;55696;52.138;5.444;2022-07-30T03:35:23;20.00;64.50
68719;DHT22;55696;52.138;5.444;2022-07-30T03:37:57;20.00;64.40
68719;DHT22;55696;52.138;5.444;2022-07-30T03:40:25;20.00;64.40
68719;DHT22;55696;52.138;5.444;2022-07-30T03:42:53;20.00;64.40
68719;DHT22;55696;52.138;5.444;2022-07-30T03:45:22;20.00;64.30
68719;DHT22;55696;52.138;5.444;2022-07-30T03:47:54;19.90;64.20
68719;DHT22;55696;52.138;5.444;2022-07-30T03:50:22;19.90;64.30
68719;DHT22;55696;52.138;5.444;2022-07-30T03:52:49;19.90;64.20
68719;DHT22;55696;52.138;5.444;2022-07-30T03:55:16;19.80;64.20
68719;DHT22;55696;52.138;5.444;2022-07-30T03:57:46;19.80;64.20
68719;DHT22;55696;52.138;5.444;2022-07-30T04:00:15;19.80;64.40
68719;DHT22;55696;52.138;5.444;2022-07-30T04:02:47;19.70;64.60
68719;DHT22;55696;52.138;5.444;2022-07-30T04:05:32;19.70;64.70
68719;DHT22;55696;52.138;5.444;2022-07-30T04:08:07;19.70;64.70
68719;DHT22;55696;52.138;5.444;2022-07-30T04:10:34;19.60;64.70
68719;DHT22;55696;52.138;5.444;2022-07-30T04:13:36;19.60;64.70
68719;DHT22;55696;52.138;5.444;2022-07-30T04:16:28;19.60;64.70
68719;DHT22;55696;52.138;5.444;2022-07-30T04:19:11;19.50;65.10
68719;DHT22;55696;52.138;5.444;2022-07-30T04:21:40;19.50;65.20
68719;DHT22;55696;52.138;5.444;2022-07-30T04:24:10;19.30;65.30
68719;DHT22;55696;52.138;5.444;2022-07-30T04:26:38;19.40;65.40
68719;DHT22;55696;52.138;5.444;2022-07-30T04:29:08;19.50;65.40
68719;DHT22;55696;52.138;5.444;2022-07-30T04:31:44;19.50;65.50
68719;DHT22;55696;52.138;5.444;2022-07-30T04:34:32;19.60;65.10
68719;DHT22;55696;52.138;5.444;2022-07-30T04:36:59;19.60;64.90
68719;DHT22;55696;52.138;5.444;2022-07-30T04:39:27;19.60;64.90
68719;DHT22;55696;52.138;5.444;2022-07-30T04:41:54;19.60;64.80
68719;DHT22;55696;52.138;5.444;2022-07-30T04:44:32;19.60;64.90
68719;DHT22;55696;52.138;5.444;2022-07-30T04:47:32;20.00;65.20
68719;DHT22;55696;52.138;5.444;2022-07-30T04:50:21;19.70;64.90
68719;DHT22;55696;52.138;5.444;2022-07-30T04:52:51;19.60;65.00
68719;DHT22;55696;52.138;5.444;2022-07-30T04:55:25;19.70;65.80
68719;DHT22;55696;52.138;5.444;2022-07-30T04:57:53;19.70;64.90
68719;DHT22;55696;52.138;5.444;2022-07-30T05:00:21;19.70;64.90
68719;DHT22;55696;52.138;5.444;2022-07-30T05:02:50;19.70;65.00
68719;DHT22;55696;52.138;5.444;2022-07-30T05:05:19;19.70;65.10
68719;DHT22;55696;52.138;5.444;2022-07-30T05:07:46;19.70;65.10
68719;DHT22;55696;52.138;5.444;2022-07-30T05:10:13;19.70;64.80
68719;DHT22;55696;52.138;5.444;2022-07-30T05:12:41;20.60;65.10
68719;DHT22;55696;52.138;5.444;2022-07-30T05:15:09;19.80;64.60
68719;DHT22;55696;52.138;5.444;2022-07-30T05:17:36;19.80;64.70
68719;DHT22;55696;52.138;5.444;2022-07-30T05:20:06;19.90;64.70
68719;DHT22;55696;52.138;5.444;2022-07-30T05:22:50;19.90;64.60
68719;DHT22;55696;52.138;5.444;2022-07-30T05:25:19;19.90;64.50
68719;DHT22;55696;52.138;5.444;2022-07-30T05:27:47;19.90;65.40
68719;DHT22;55696;52.138;5.444;2022-07-30T05:30:14;19.90;64.50
68719;DHT22;55696;52.138;5.444;2022-07-30T05:32:45;20.00;64.50
68719;DHT22;55696;52.138;5.444;2022-07-30T05:35:12;20.00;64.50
68719;DHT22;55696;52.138;5.444;2022-07-30T05:37:39;19.90;64.40
68719;DHT22;55696;52.138;5.444;2022-07-30T05:40:06;20.10;64.50
68719;DHT22;55696;52.138;5.444;2022-07-30T05:42:58;20.20;64.40
68719;DHT22;55696;52.138;5.444;2022-07-30T05:45:26;20.10;64.20
68719;DHT22;55696;52.138;5.444;2022-07-30T05:47:53;20.20;64.10
68719;DHT22;55696;52.138;5.444;2022-07-30T05:50:20;20.30;64.00
68719;DHT22;55696;52.138;5.444;2022-07-30T05:52:47;20.30;63.80
68719;DHT22;55696;52.138;5.444;2022-07-30T05:55:32;20.40;63.60
68719;DHT22;55696;52.138;5.444;2022-07-30T05:58:20;20.50;63.50
68719;DHT22;55696;52.138;5.444;2022-07-30T06:00:47;20.60;63.40
68719;DHT22;55696;52.138;5.444;2022-07-30T06:03:15;20.60;63.40
68719;DHT22;55696;52.138;5.444;2022-07-30T06:06:04;20.60;63.20
68719;DHT22;55696;52.138;5.444;2022-07-30T06:08:31;20.70;63.20
68719;DHT22;55696;52.138;5.444;2022-07-30T06:10:58;20.80;62.80
68719;DHT22;55696;52.138;5.444;2022-07-30T06:13:24;20.80;62.40
68719;DHT22;55696;52.138;5.444;2022-07-30T06:15:52;20.90;62.30
68719;DHT22;55696;52.138;5.444;2022-07-30T06:18:18;20.90;62.20
68719;DHT22;55696;52.138;5.444;2022-07-30T06:20:51;20.90;62.10
68719;DHT22;55696;52.138;5.444;2022-07-30T06:23:28;21.00;62.10
68719;DHT22;55696;52.138;5.444;2022-07-30T06:26:34;21.10;62.00
68719;DHT22;55696;52.138;5.444;2022-07-30T06:29:02;21.10;61.60
68719;DHT22;55696;52.138;5.444;2022-07-30T06:31:29;21.20;61.40
68719;DHT22;55696;52.138;5.444;2022-07-30T06:33:56;21.30;61.00
68719;DHT22;55696;52.138;5.444;2022-07-30T06:36:26;21.40;60.90
68719;DHT22;55696;52.138;5.444;2022-07-30T06:38:59;21.40;60.50
68719;DHT22;55696;52.138;5.444;2022-07-30T06:41:44;21.30;60.00
68719;DHT22;55696;52.138;5.444;2022-07-30T06:44:13;21.50;59.80
68719;DHT22;55696;52.138;5.444;2022-07-30T06:46:58;21.50;59.70
68719;DHT22;55696;52.138;5.444;2022-07-30T06:49:33;21.60;59.40
68719;DHT22;55696;52.138;5.444;2022-07-30T06:52:01;21.70;59.30
68719;DHT22;55696;52.138;5.444;2022-07-30T06:54:28;21.80;58.90
68719;DHT22;55696;52.138;5.444;2022-07-30T06:57:07;21.90;58.60
68719;DHT22;55696;52.138;5.444;2022-07-30T06:59:34;21.90;58.30
68719;DHT22;55696;52.138;5.444;2022-07-30T07:02:29;21.90;58.00
68719;DHT22;55696;52.138;5.444;2022-07-30T07:05:05;21.90;57.80
68719;DHT22;55696;52.138;5.444;2022-07-30T07:07:36;22.00;57.80
68719;DHT22;55696;52.138;5.444;2022-07-30T07:10:12;22.20;57.80
68719;DHT22;55696;52.138;5.444;2022-07-30T07:12:50;22.20;57.30
68719;DHT22;55696;52.138;5.444;2022-07-30T07:15:19;22.30;57.00
68719;DHT22;55696;52.138;5.444;2022-07-30T07:18:06;22.50;56.70
68719;DHT22;55696;52.138;5.444;2022-07-30T07:20:36;22.70;56.20
68719;DHT22;55696;52.138;5.444;2022-07-30T07:23:04;22.60;55.80
68719;DHT22;55696;52.138;5.444;2022-07-30T07:25:38;22.70;55.40
68719;DHT22;55696;52.138;5.444;2022-07-30T07:28:05;22.80;54.90
68719;DHT22;55696;52.138;5.444;2022-07-30T07:30:41;22.80;54.60
68719;DHT22;55696;52.138;5.444;2022-07-30T07:33:09;22.90;54.50
68719;DHT22;55696;52.138;5.444;2022-07-30T07:35:37;22.90;54.00
68719;DHT22;55696;52.138;5.444;2022-07-30T07:38:18;22.70;53.60
68719;DHT22;55696;52.138;5.444;2022-07-30T07:40:46;22.60;54.20
68719;DHT22;55696;52.138;5.444;2022-07-30T07:43:13;22.50;54.10
68719;DHT22;55696;52.138;5.444;2022-07-30T07:45:41;22.50;54.30
68719;DHT22;55696;52.138;5.444;2022-07-30T07:48:08;22.50;54.10
68719;DHT22;55696;52.138;5.444;2022-07-30T07:51:04;22.70;53.50
68719;DHT22;55696;52.138;5.444;2022-07-30T07:53:35;22.80;53.30
68719;DHT22;55696;52.138;5.444;2022-07-30T07:56:02;22.80;53.00
68719;DHT22;55696;52.138;5.444;2022-07-30T07:58:29;22.70;53.00
68719;DHT22;55696;52.138;5.444;2022-07-30T08:00:59;22.50;52.90
68719;DHT22;55696;52.138;5.444;2022-07-30T08:03:46;22.70;52.70
68719;DHT22;55696;52.138;5.444;2022-07-30T08:06:39;22.60;52.40
68719;DHT22;55696;52.138;5.444;2022-07-30T08:09:24;22.70;52.30
68719;DHT22;55696;52.138;5.444;2022-07-30T08:12:15;22.60;52.40
68719;DHT22;55696;52.138;5.444;2022-07-30T08:15:00;22.70;52.40
68719;DHT22;55696;52.138;5.444;2022-07-30T08:17:50;22.80;52.30
68719;DHT22;55696;52.138;5.444;2022-07-30T08:20:21;22.90;51.90
68719;DHT22;55696;52.138;5.444;2022-07-30T08:22:50;23.00;51.60
68719;DHT22;55696;52.138;5.444;2022-07-30T08:25:17;23.00;51.50
68719;DHT22;55696;52.138;5.444;2022-07-30T08:27:50;23.00;51.50
68719;DHT22;55696;52.138;5.444;2022-07-30T08:30:19;23.10;51.40
68719;DHT22;55696;52.138;5.444;2022-07-30T08:32:46;23.20;51.20
68719;DHT22;55696;52.138;5.444;2022-07-30T08:35:13;23.30;51.10
68719;DHT22;55696;52.138;5.444;2022-07-30T08:37:39;23.40;50.90
68719;DHT22;55696;52.138;5.444;2022-07-30T08:40:08;23.40;50.90
68719;DHT22;55696;52.138;5.444;2022-07-30T08:42:42;23.50;50.70
68719;DHT22;55696;52.138;5.444;2022-07-30T08:45:11;23.50;50.20
68719;DHT22;55696;52.138;5.444;2022-07-30T08:47:40;23.60;50.20
68719;DHT22;55696;52.138;5.444;2022-07-30T08:50:10;23.80;50.20
68719;DHT22;55696;52.138;5.444;2022-07-30T08:53:01;23.60;50.00
68719;DHT22;55696;52.138;5.444;2022-07-30T08:55:28;23.60;49.80
68719;DHT22;55696;52.138;5.444;2022-07-30T08:57:55;23.70;49.80
68719;DHT22;55696;52.138;5.444;2022-07-30T09:00:23;23.60;49.10
68719;DHT22;55696;52.138;5.444;2022-07-30T09:02:49;23.50;48.90
68719;DHT22;55696;52.138;5.444;2022-07-30T09:05:17;23.50;49.30
68719;DHT22;55696;52.138;5.444;2022-07-30T09:07:44;23.50;48.90
68719;DHT22;55696;52.138;5.444;2022-07-30T09:10:17;23.60;48.80
68719;DHT22;55696;52.138;5.444;2022-07-30T09:12:45;23.70;48.50
68719;DHT22;55696;52.138;5.444;2022-07-30T09:15:17;24.40;48.60
68719;DHT22;55696;52.138;5.444;2022-07-30T09:18:02;23.80;47.90
68719;DHT22;55696;52.138;5.444;2022-07-30T09:20:33;24.30;48.40
68719;DHT22;55696;52.138;5.444;2022-07-30T09:23:05;23.80;47.90
68719;DHT22;55696;52.138;5.444;2022-07-30T09:25:52;23.90;47.60
68719;DHT22;55696;52.138;5.444;2022-07-30T09:28:38;24.00;47.10
68719;DHT22;55696;52.138;5.444;2022-07-30T09:31:14;24.30;47.00
68719;DHT22;55696;52.138;5.444;2022-07-30T09:34:00;24.10;46.90
68719;DHT22;55696;52.138;5.444;2022-07-30T09:36:45;24.00;47.90
68719;DHT22;55696;52.138;5.444;2022-07-30T09:39:37;24.10;46.80
68719;DHT22;55696;52.138;5.444;2022-07-30T09:42:26;24.10;46.90
68719;DHT22;55696;52.138;5.444;2022-07-30T09:45:07;24.10;46.60
68719;DHT22;55696;52.138;5.444;2022-07-30T09:47:37;24.20;46.60
68719;DHT22;55696;52.138;5.444;2022-07-30T09:50:06;24.10;46.50
68719;DHT22;55696;52.138;5.444;2022-07-30T09:52:34;24.30;46.50
68719;DHT22;55696;52.138;5.444;2022-07-30T09:55:10;24.40;46.50
68719;DHT22;55696;52.138;5.444;2022-07-30T10:00:27;24.50;46.60
68719;DHT22;55696;52.138;5.444;2022-07-30T10:03:24;24.50;46.30
68719;DHT22;55696;52.138;5.444;2022-07-30T10:06:31;24.50;45.80
68719;DHT22;55696;52.138;5.444;2022-07-30T10:09:00;24.80;45.60
68719;DHT22;55696;52.138;5.444;2022-07-30T10:11:39;24.80;45.20
68719;DHT22;55696;52.138;5.444;2022-07-30T10:14:07;24.90;44.90
68719;DHT22;55696;52.138;5.444;2022-07-30T10:16:34;25.10;44.80
68719;DHT22;55696;52.138;5.444;2022-07-30T10:19:01;25.20;44.80
68719;DHT22;55696;52.138;5.444;2022-07-30T10:22:05;25.20;44.70
68719;DHT22;55696;52.138;5.444;2022-07-30T10:24:50;25.40;44.70
68719;DHT22;55696;52.138;5.444;2022-07-30T10:27:18;25.40;44.20
68719;DHT22;55696;52.138;5.444;2022-07-30T10:29:57;25.50;43.90
68719;DHT22;55696;52.138;5.444;2022-07-30T10:32:29;25.30;43.70
68719;DHT22;55696;52.138;5.444;2022-07-30T10:34:57;25.70;43.50
68719;DHT22;55696;52.138;5.444;2022-07-30T10:37:28;25.70;43.50
68719;DHT22;55696;52.138;5.444;2022-07-30T10:40:13;25.90;43.40
68719;DHT22;55696;52.138;5.444;2022-07-30T10:49:15;26.10;43.00
68719;DHT22;55696;52.138;5.444;2022-07-30T10:51:49;26.10;42.90
68719;DHT22;55696;52.138;5.444;2022-07-30T10:57:19;26.30;42.50
68719;DHT22;55696;52.138;5.444;2022-07-30T11:02:29;26.80;42.10
68719;DHT22;55696;52.138;5.444;2022-07-30T11:07:44;27.10;42.30
68719;DHT22;55696;52.138;5.444;2022-07-30T11:10:39;26.60;41.30
68719;DHT22;55696;52.138;5.444;2022-07-30T11:13:11;26.80;41.40
68719;DHT22;55696;52.138;5.444;2022-07-30T11:15:58;26.80;41.30
68719;DHT22;55696;52.138;5.444;2022-07-30T11:18:29;26.80;41.00
68719;DHT22;55696;52.138;5.444;2022-07-30T11:21:19;26.90;40.70
68719;DHT22;55696;52.138;5.444;2022-07-30T11:23:48;26.80;40.70
68719;DHT22;55696;52.138;5.444;2022-07-30T11:29:39;27.00;40.60
68719;DHT22;55696;52.138;5.444;2022-07-30T11:32:33;27.00;40.40
68719;DHT22;55696;52.138;5.444;2022-07-30T11:37:59;27.10;40.20
68719;DHT22;55696;52.138;5.444;2022-07-30T11:41:23;27.20;40.10
68719;DHT22;55696;52.138;5.444;2022-07-30T11:43:31;27.10;39.80
68719;DHT22;55696;52.138;5.444;2022-07-30T11:46:18;27.50;39.90
68719;DHT22;55696;52.138;5.444;2022-07-30T11:51:23;27.70;39.40
68719;DHT22;55696;52.138;5.444;2022-07-30T11:54:04;27.90;38.90
68719;DHT22;55696;52.138;5.444;2022-07-30T11:56:31;28.00;38.90
68719;DHT22;55696;52.138;5.444;2022-07-30T11:59:02;28.10;38.60
68719;DHT22;55696;52.138;5.444;2022-07-30T12:01:30;28.10;38.20
68719;DHT22;55696;52.138;5.444;2022-07-30T12:04:05;28.00;38.30
68719;DHT22;55696;52.138;5.444;2022-07-30T12:06:32;28.40;38.10
68719;DHT22;55696;52.138;5.444;2022-07-30T12:09:01;28.60;37.60
68719;DHT22;55696;52.138;5.444;2022-07-30T12:11:33;29.20;37.40
68719;DHT22;55696;52.138;5.444;2022-07-30T12:14:01;29.10;36.80
68719;DHT22;55696;52.138;5.444;2022-07-30T12:16:29;27.90;36.20
68719;DHT22;55696;52.138;5.444;2022-07-30T12:19:04;29.00;36.50
68719;DHT22;55696;52.138;5.444;2022-07-30T12:21:31;28.90;36.30
68719;DHT22;55696;52.138;5.444;2022-07-30T12:24:03;29.00;35.80
68719;DHT22;55696;52.138;5.444;2022-07-30T12:26:33;29.00;35.90
68719;DHT22;55696;52.138;5.444;2022-07-30T12:29:03;28.70;36.40
68719;DHT22;55696;52.138;5.444;2022-07-30T12:31:32;28.90;36.70
68719;DHT22;55696;52.138;5.444;2022-07-30T12:34:03;28.90;36.60
68719;DHT22;55696;52.138;5.444;2022-07-30T12:36:32;29.10;37.00
68719;DHT22;55696;52.138;5.444;2022-07-30T12:39:03;29.00;36.80
68719;DHT22;55696;52.138;5.444;2022-07-30T12:41:45;29.20;37.40
68719;DHT22;55696;52.138;5.444;2022-07-30T12:47:02;29.80;35.20
68719;DHT22;55696;52.138;5.444;2022-07-30T12:49:31;29.70;34.90
68719;DHT22;55696;52.138;5.444;2022-07-30T12:52:22;29.40;34.70
68719;DHT22;55696;52.138;5.444;2022-07-30T12:55:09;29.50;35.00
68719;DHT22;55696;52.138;5.444;2022-07-30T13:00:30;29.40;35.20
68719;DHT22;55696;52.138;5.444;2022-07-30T13:02:57;29.40;35.20
68719;DHT22;55696;52.138;5.444;2022-07-30T13:05:48;29.30;35.00
68719;DHT22;55696;52.138;5.444;2022-07-30T13:08:16;29.20;35.30
68719;DHT22;55696;52.138;5.444;2022-07-30T13:10:55;29.10;35.20
68719;DHT22;55696;52.138;5.444;2022-07-30T13:13:25;29.00;35.10
68719;DHT22;55696;52.138;5.444;2022-07-30T13:16:03;28.90;35.50
68719;DHT22;55696;52.138;5.444;2022-07-30T13:18:31;29.00;36.10
68719;DHT22;55696;52.138;5.444;2022-07-30T13:21:00;29.10;35.60
68719;DHT22;55696;52.138;5.444;2022-07-30T13:23:27;29.40;35.40
68719;DHT22;55696;52.138;5.444;2022-07-30T13:25:56;29.50;34.70
68719;DHT22;55696;52.138;5.444;2022-07-30T13:28:23;29.80;34.70
68719;DHT22;55696;52.138;5.444;2022-07-30T13:30:50;29.90;34.10
68719;DHT22;55696;52.138;5.444;2022-07-30T13:33:17;29.90;33.90
68719;DHT22;55696;52.138;5.444;2022-07-30T13:35:44;29.80;33.70
68719;DHT22;55696;52.138;5.444;2022-07-30T13:38:11;29.40;34.00
68719;DHT22;55696;52.138;5.444;2022-07-30T13:40:39;29.30;34.40
68719;DHT22;55696;52.138;5.444;2022-07-30T13:43:05;29.50;34.80
68719;DHT22;55696;52.138;5.444;2022-07-30T13:45:33;29.50;34.70
68719;DHT22;55696;52.138;5.444;2022-07-30T13:48:00;29.90;34.80
68719;DHT22;55696;52.138;5.444;2022-07-30T13:50:27;29.80;33.70
68719;DHT22;55696;52.138;5.444;2022-07-30T13:52:54;29.90;33.70
68719;DHT22;55696;52.138;5.444;2022-07-30T13:55:28;30.00;33.20
68719;DHT22;55696;52.138;5.444;2022-07-30T13:57:54;30.40;32.90
68719;DHT22;55696;52.138;5.444;2022-07-30T14:00:21;30.60;32.60
68719;DHT22;55696;52.138;5.444;2022-07-30T14:02:48;30.80;32.30
68719;DHT22;55696;52.138;5.444;2022-07-30T14:05:15;30.60;32.20
68719;DHT22;55696;52.138;5.444;2022-07-30T14:07:42;30.90;32.30
68719;DHT22;55696;52.138;5.444;2022-07-30T14:10:09;30.70;32.30
68719;DHT22;55696;52.138;5.444;2022-07-30T14:12:36;30.70;32.40
68719;DHT22;55696;52.138;5.444;2022-07-30T14:15:03;30.60;32.40
68719;DHT22;55696;52.138;5.444;2022-07-30T14:17:30;30.50;32.70
68719;DHT22;55696;52.138;5.444;2022-07-30T14:19:57;30.40;33.00
68719;DHT22;55696;52.138;5.444;2022-07-30T14:22:24;30.20;33.00
68719;DHT22;55696;52.138;5.444;2022-07-30T14:24:50;30.20;33.30
68719;DHT22;55696;52.138;5.444;2022-07-30T14:27:17;29.90;33.30
68719;DHT22;55696;52.138;5.444;2022-07-30T14:29:46;29.70;33.70
68719;DHT22;55696;52.138;5.444;2022-07-30T14:32:12;29.50;34.00
68719;DHT22;55696;52.138;5.444;2022-07-30T14:34:39;29.30;34.50
68719;DHT22;55696;52.138;5.444;2022-07-30T14:37:14;29.00;34.80
68719;DHT22;55696;52.138;5.444;2022-07-30T14:39:41;29.20;35.20
68719;DHT22;55696;52.138;5.444;2022-07-30T14:42:08;29.30;35.40
68719;DHT22;55696;52.138;5.444;2022-07-30T14:44:34;29.50;35.00
68719;DHT22;55696;52.138;5.444;2022-07-30T14:47:01;29.80;34.80
68719;DHT22;55696;52.138;5.444;2022-07-30T14:49:29;29.90;34.50
68719;DHT22;55696;52.138;5.444;2022-07-30T14:51:56;30.00;34.30
68719;DHT22;55696;52.138;5.444;2022-07-30T14:54:23;30.10;34.00
68719;DHT22;55696;52.138;5.444;2022-07-30T14:56:49;30.20;33.90
68719;DHT22;55696;52.138;5.444;2022-07-30T14:59:24;30.20;33.60
68719;DHT22;55696;52.138;5.444;2022-07-30T15:01:51;29.90;33.50
68719;DHT22;55696;52.138;5.444;2022-07-30T15:04:18;29.70;33.60
68719;DHT22;55696;52.138;5.444;2022-07-30T15:06:44;29.60;33.70
68719;DHT22;55696;52.138;5.444;2022-07-30T15:09:12;29.40;33.90
68719;DHT22;55696;52.138;5.444;2022-07-30T15:11:39;29.50;34.20
68719;DHT22;55696;52.138;5.444;2022-07-30T15:14:26;29.50;33.80
68719;DHT22;55696;52.138;5.444;2022-07-30T15:16:54;29.50;33.50
68719;DHT22;55696;52.138;5.444;2022-07-30T15:19:24;29.50;33.70
68719;DHT22;55696;52.138;5.444;2022-07-30T15:21:52;29.50;33.70
68719;DHT22;55696;52.138;5.444;2022-07-30T15:24:18;29.70;33.70
68719;DHT22;55696;52.138;5.444;2022-07-30T15:26:46;29.80;33.30
68719;DHT22;55696;52.138;5.444;2022-07-30T15:29:14;29.80;33.30
68719;DHT22;55696;52.138;5.444;2022-07-30T15:31:40;29.80;33.40
68719;DHT22;55696;52.138;5.444;2022-07-30T15:34:07;29.80;33.70
68719;DHT22;55696;52.138;5.444;2022-07-30T15:36:37;29.80;34.00
68719;DHT22;55696;52.138;5.444;2022-07-30T15:39:05;30.10;34.20
68719;DHT22;55696;52.138;5.444;2022-07-30T15:41:32;30.20;33.80
68719;DHT22;55696;52.138;5.444;2022-07-30T15:43:59;30.30;33.10
68719;DHT22;55696;52.138;5.444;2022-07-30T15:46:25;30.50;32.90
68719;DHT22;55696;52.138;5.444;2022-07-30T15:48:52;30.80;33.00
68719;DHT22;55696;52.138;5.444;2022-07-30T15:51:19;31.10;32.60
68719;DHT22;55696;52.138;5.444;2022-07-30T15:53:46;31.20;31.80
68719;DHT22;55696;52.138;5.444;2022-07-30T15:56:12;31.50;31.50
68719;DHT22;55696;52.138;5.444;2022-07-30T15:58:41;31.80;31.60
68719;DHT22;55696;52.138;5.444;2022-07-30T16:01:09;31.80;31.10
68719;DHT22;55696;52.138;5.444;2022-07-30T16:03:36;31.70;31.00
68719;DHT22;55696;52.138;5.444;2022-07-30T16:06:02;31.40;31.20
68719;DHT22;55696;52.138;5.444;2022-07-30T16:08:29;31.40;32.00
68719;DHT22;55696;52.138;5.444;2022-07-30T16:10:57;30.90;32.10
68719;DHT22;55696;52.138;5.444;2022-07-30T16:13:23;30.80;32.40
68719;DHT22;55696;52.138;5.444;2022-07-30T16:15:50;30.50;32.80
68719;DHT22;55696;52.138;5.444;2022-07-30T16:18:17;30.20;33.20
68719;DHT22;55696;52.138;5.444;2022-07-30T16:20:43;30.00;33.30
68719;DHT22;55696;52.138;5.444;2022-07-30T16:23:10;29.70;34.00
68719;DHT22;55696;52.138;5.444;2022-07-30T16:25:42;29.70;34.30
68719;DHT22;55696;52.138;5.444;2022-07-30T16:28:09;29.80;34.30
68719;DHT22;55696;52.138;5.444;2022-07-30T16:30:35;29.90;34.30
68719;DHT22;55696;52.138;5.444;2022-07-30T16:33:16;29.80;34.30